sensor_id;sensor_type;location;lat;lon;timestamp;pressure;altitude;pressure_sealevel;temperature;humidity
30618;BME280;17384;51.214;9.202;2023-02-28T00:00:06;99953.69;;;-1.20;59.96
30618;BME280;17384;51.214;9.202;2023-02-28T00:02:43;99951.25;;;-1.23;60.27
30618;BME280;17384;51.214;9.202;2023-02-28T00:05:10;99966.56;;;-1.14;59.65
30618;BME280;17384;51.214;9.202;2023-02-28T00:07:36;99953.13;;;-1.12;59.27
30618;BME280;17384;51.214;9.202;2023-02-28T00:10:06;99955.78;;;-1.12;59.00
30618;BME280;17384;51.214;9.202;2023-02-28T00:12:33;99943.06;;;-1.09;59.21
30618;BME280;17384;51.214;9.202;2023-02-28T00:14:59;99959.44;;;-1.02;58.84
30618;BME280;17384;51.214;9.202;2023-02-28T00:17:25;99947.22;;;-1.05;58.44
30618;BME280;17384;51.214;9.202;2023-02-28T00:19:51;99961.88;;;-0.99;59.31
30618;BME280;17384;51.214;9.202;2023-02-28T00:22:18;99962.91;;;-0.89;58.86
30618;BME280;17384;51.214;9.202;2023-02-28T00:24:44;99960.19;;;-1.00;58.87
30618;BME280;17384;51.214;9.202;2023-02-28T00:27:10;99957.00;;;-1.05;59.23
30618;BME280;17384;51.214;9.202;2023-02-28T00:29:36;99966.31;;;-1.11;59.81
30618;BME280;17384;51.214;9.202;2023-02-28T00:32:02;99959.41;;;-1.13;59.96
30618;BME280;17384;51.214;9.202;2023-02-28T00:34:27;99966.81;;;-1.06;59.44
30618;BME280;17384;51.214;9.202;2023-02-28T00:36:53;99961.25;;;-1.03;59.15
30618;BME280;17384;51.214;9.202;2023-02-28T00:39:19;99971.19;;;-1.05;59.48
30618;BME280;17384;51.214;9.202;2023-02-28T00:41:45;99961.47;;;-1.06;59.81
30618;BME280;17384;51.214;9.202;2023-02-28T00:44:10;99962.94;;;-1.13;60.12
30618;BME280;17384;51.214;9.202;2023-02-28T00:46:36;99960.03;;;-1.10;59.68
30618;BME280;17384;51.214;9.202;2023-02-28T00:49:01;99962.44;;;-1.07;59.81
30618;BME280;17384;51.214;9.202;2023-02-28T00:51:27;99951.31;;;-1.12;59.79
30618;BME280;17384;51.214;9.202;2023-02-28T00:53:52;99963.41;;;-1.08;59.79
30618;BME280;17384;51.214;9.202;2023-02-28T00:56:18;99966.81;;;-1.06;59.67
30618;BME280;17384;51.214;9.202;2023-02-28T00:58:43;99963.78;;;-1.12;59.15
30618;BME280;17384;51.214;9.202;2023-02-28T01:01:09;99968.59;;;-1.17;59.18
30618;BME280;17384;51.214;9.202;2023-02-28T01:03:34;99960.31;;;-1.25;58.85
30618;BME280;17384;51.214;9.202;2023-02-28T01:06:00;99952.72;;;-1.19;58.46
30618;BME280;17384;51.214;9.202;2023-02-28T01:08:26;99949.97;;;-1.30;58.95
30618;BME280;17384;51.214;9.202;2023-02-28T01:10:52;99957.97;;;-1.30;58.03
30618;BME280;17384;51.214;9.202;2023-02-28T01:13:18;99953.81;;;-1.34;58.30
30618;BME280;17384;51.214;9.202;2023-02-28T01:15:52;99969.09;;;-1.49;58.40
30618;BME280;17384;51.214;9.202;2023-02-28T01:18:20;99960.72;;;-1.55;58.86
30618;BME280;17384;51.214;9.202;2023-02-28T01:20:46;99972.63;;;-1.61;58.60
30618;BME280;17384;51.214;9.202;2023-02-28T01:23:11;99956.34;;;-1.56;58.30
30618;BME280;17384;51.214;9.202;2023-02-28T01:25:38;99965.06;;;-1.54;58.22
30618;BME280;17384;51.214;9.202;2023-02-28T01:28:04;99949.06;;;-1.65;58.77
30618;BME280;17384;51.214;9.202;2023-02-28T01:30:30;99951.41;;;-1.74;59.24
30618;BME280;17384;51.214;9.202;2023-02-28T01:32:55;99957.25;;;-1.68;58.77
30618;BME280;17384;51.214;9.202;2023-02-28T01:35:21;99959.91;;;-1.68;58.84
30618;BME280;17384;51.214;9.202;2023-02-28T01:37:47;99962.25;;;-1.77;59.06
30618;BME280;17384;51.214;9.202;2023-02-28T01:40:13;99956.09;;;-1.77;58.79
30618;BME280;17384;51.214;9.202;2023-02-28T01:42:38;99945.75;;;-1.69;58.37
30618;BME280;17384;51.214;9.202;2023-02-28T01:47:50;99951.94;;;-1.68;58.98
30618;BME280;17384;51.214;9.202;2023-02-28T01:50:23;99941.06;;;-1.65;58.95
30618;BME280;17384;51.214;9.202;2023-02-28T01:52:54;99951.56;;;-1.64;59.05
30618;BME280;17384;51.214;9.202;2023-02-28T01:55:22;99939.84;;;-1.61;58.56
30618;BME280;17384;51.214;9.202;2023-02-28T01:57:52;99933.38;;;-1.57;58.64
30618;BME280;17384;51.214;9.202;2023-02-28T02:00:22;99936.25;;;-1.60;59.36
30618;BME280;17384;51.214;9.202;2023-02-28T02:02:50;99941.72;;;-1.75;60.18
30618;BME280;17384;51.214;9.202;2023-02-28T02:05:24;99946.94;;;-1.86;60.47
30618;BME280;17384;51.214;9.202;2023-02-28T02:07:54;99940.38;;;-1.93;61.34
30618;BME280;17384;51.214;9.202;2023-02-28T02:10:27;99938.97;;;-1.86;61.18
30618;BME280;17384;51.214;9.202;2023-02-28T02:18:33;99926.09;;;-1.79;60.81
30618;BME280;17384;51.214;9.202;2023-02-28T02:24:15;99934.31;;;-1.95;61.11
30618;BME280;17384;51.214;9.202;2023-02-28T02:29:27;99923.47;;;-1.92;61.07
30618;BME280;17384;51.214;9.202;2023-02-28T02:35:13;99929.84;;;-2.07;63.44
30618;BME280;17384;51.214;9.202;2023-02-28T02:40:24;99929.00;;;-2.08;62.53
30618;BME280;17384;51.214;9.202;2023-02-28T02:43:07;99929.44;;;-2.01;62.01
30618;BME280;17384;51.214;9.202;2023-02-28T02:45:41;99919.00;;;-2.04;61.63
30618;BME280;17384;51.214;9.202;2023-02-28T02:48:11;99931.03;;;-1.98;61.60
30618;BME280;17384;51.214;9.202;2023-02-28T02:50:43;99925.38;;;-1.94;61.06
30618;BME280;17384;51.214;9.202;2023-02-28T02:53:12;99940.22;;;-1.79;59.81
30618;BME280;17384;51.214;9.202;2023-02-28T02:55:41;99934.81;;;-1.90;59.60
30618;BME280;17384;51.214;9.202;2023-02-28T02:58:14;99929.22;;;-1.98;60.64
30618;BME280;17384;51.214;9.202;2023-02-28T03:00:49;99923.16;;;-2.00;60.07
30618;BME280;17384;51.214;9.202;2023-02-28T03:03:19;99917.72;;;-1.98;60.30
30618;BME280;17384;51.214;9.202;2023-02-28T03:05:57;99932.94;;;-2.00;59.59
30618;BME280;17384;51.214;9.202;2023-02-28T03:08:23;99924.09;;;-2.01;59.01
30618;BME280;17384;51.214;9.202;2023-02-28T03:10:51;99933.47;;;-1.95;59.04
30618;BME280;17384;51.214;9.202;2023-02-28T03:13:34;99942.78;;;-1.90;58.84
30618;BME280;17384;51.214;9.202;2023-02-28T03:16:25;99923.25;;;-2.01;58.72
30618;BME280;17384;51.214;9.202;2023-02-28T03:22:01;99934.09;;;-1.92;57.70
30618;BME280;17384;51.214;9.202;2023-02-28T03:24:48;99928.66;;;-1.90;57.57
30618;BME280;17384;51.214;9.202;2023-02-28T03:27:29;99924.53;;;-1.94;58.50
30618;BME280;17384;51.214;9.202;2023-02-28T03:30:22;99930.47;;;-1.91;58.93
30618;BME280;17384;51.214;9.202;2023-02-28T03:36:04;99943.03;;;-1.93;59.54
30618;BME280;17384;51.214;9.202;2023-02-28T03:38:49;99930.59;;;-2.05;60.78
30618;BME280;17384;51.214;9.202;2023-02-28T03:41:23;99935.28;;;-2.09;61.46
30618;BME280;17384;51.214;9.202;2023-02-28T03:44:05;99928.78;;;-2.17;61.71
30618;BME280;17384;51.214;9.202;2023-02-28T03:46:37;99920.91;;;-2.19;60.39
30618;BME280;17384;51.214;9.202;2023-02-28T03:49:11;99937.09;;;-2.22;61.40
30618;BME280;17384;51.214;9.202;2023-02-28T03:51:41;99932.75;;;-2.35;62.35
30618;BME280;17384;51.214;9.202;2023-02-28T03:54:12;99917.66;;;-2.35;62.55
30618;BME280;17384;51.214;9.202;2023-02-28T03:56:43;99927.22;;;-2.32;61.90
30618;BME280;17384;51.214;9.202;2023-02-28T03:59:16;99932.84;;;-2.37;61.23
30618;BME280;17384;51.214;9.202;2023-02-28T04:01:50;99940.19;;;-2.28;59.86
30618;BME280;17384;51.214;9.202;2023-02-28T04:04:16;99938.59;;;-2.30;62.03
30618;BME280;17384;51.214;9.202;2023-02-28T04:06:43;99920.31;;;-2.22;59.46
30618;BME280;17384;51.214;9.202;2023-02-28T04:09:12;99934.34;;;-2.20;59.59
30618;BME280;17384;51.214;9.202;2023-02-28T04:11:49;99923.56;;;-2.19;59.46
30618;BME280;17384;51.214;9.202;2023-02-28T04:14:17;99933.16;;;-2.16;59.72
30618;BME280;17384;51.214;9.202;2023-02-28T04:16:44;99926.88;;;-2.15;59.41
30618;BME280;17384;51.214;9.202;2023-02-28T04:19:11;99927.72;;;-2.02;59.19
30618;BME280;17384;51.214;9.202;2023-02-28T04:21:39;99932.09;;;-2.01;59.25
30618;BME280;17384;51.214;9.202;2023-02-28T04:24:10;99926.66;;;-1.99;59.12
30618;BME280;17384;51.214;9.202;2023-02-28T04:26:40;99937.38;;;-1.88;58.88
30618;BME280;17384;51.214;9.202;2023-02-28T04:29:06;99936.53;;;-1.89;58.86
30618;BME280;17384;51.214;9.202;2023-02-28T04:31:32;99939.91;;;-1.87;58.42
30618;BME280;17384;51.214;9.202;2023-02-28T04:33:58;99947.03;;;-1.87;57.88
30618;BME280;17384;51.214;9.202;2023-02-28T04:36:23;99938.31;;;-1.89;58.68
30618;BME280;17384;51.214;9.202;2023-02-28T04:38:49;99931.50;;;-1.81;58.65
30618;BME280;17384;51.214;9.202;2023-02-28T04:41:15;99945.13;;;-1.73;56.89
30618;BME280;17384;51.214;9.202;2023-02-28T04:43:41;99926.44;;;-1.60;54.61
30618;BME280;17384;51.214;9.202;2023-02-28T04:46:06;99929.75;;;-1.56;54.91
30618;BME280;17384;51.214;9.202;2023-02-28T04:48:34;99940.72;;;-1.61;55.01
30618;BME280;17384;51.214;9.202;2023-02-28T04:51:02;99925.28;;;-1.56;55.20
30618;BME280;17384;51.214;9.202;2023-02-28T04:53:28;99951.72;;;-1.65;55.78
30618;BME280;17384;51.214;9.202;2023-02-28T04:55:54;99932.72;;;-1.61;53.97
30618;BME280;17384;51.214;9.202;2023-02-28T04:58:20;99948.38;;;-1.56;53.63
30618;BME280;17384;51.214;9.202;2023-02-28T05:00:48;99927.38;;;-1.48;51.99
30618;BME280;17384;51.214;9.202;2023-02-28T05:03:14;99934.59;;;-1.38;50.91
30618;BME280;17384;51.214;9.202;2023-02-28T05:05:39;99933.91;;;-1.28;51.75
30618;BME280;17384;51.214;9.202;2023-02-28T05:08:05;99939.56;;;-1.33;51.98
30618;BME280;17384;51.214;9.202;2023-02-28T05:10:31;99948.28;;;-1.31;50.78
30618;BME280;17384;51.214;9.202;2023-02-28T05:12:57;99951.00;;;-1.44;51.59
30618;BME280;17384;51.214;9.202;2023-02-28T05:15:22;99950.38;;;-1.47;52.14
30618;BME280;17384;51.214;9.202;2023-02-28T05:17:48;99945.91;;;-1.47;52.27
30618;BME280;17384;51.214;9.202;2023-02-28T05:20:13;99931.09;;;-1.38;52.33
30618;BME280;17384;51.214;9.202;2023-02-28T05:22:40;99938.44;;;-1.42;52.01
30618;BME280;17384;51.214;9.202;2023-02-28T05:25:08;99936.53;;;-1.40;52.37
30618;BME280;17384;51.214;9.202;2023-02-28T05:27:34;99954.41;;;-1.42;52.88
30618;BME280;17384;51.214;9.202;2023-02-28T05:29:59;99947.44;;;-1.31;52.18
30618;BME280;17384;51.214;9.202;2023-02-28T05:32:28;99946.97;;;-1.49;53.38
30618;BME280;17384;51.214;9.202;2023-02-28T05:34:53;99956.97;;;-1.53;53.15
30618;BME280;17384;51.214;9.202;2023-02-28T05:37:19;99955.59;;;-1.46;52.64
30618;BME280;17384;51.214;9.202;2023-02-28T05:39:44;99956.66;;;-1.48;52.75
30618;BME280;17384;51.214;9.202;2023-02-28T05:42:09;99963.16;;;-1.52;52.72
30618;BME280;17384;51.214;9.202;2023-02-28T05:44:35;99962.53;;;-1.56;53.21
30618;BME280;17384;51.214;9.202;2023-02-28T05:47:01;99963.03;;;-1.51;53.63
30618;BME280;17384;51.214;9.202;2023-02-28T05:49:27;99968.28;;;-1.62;54.08
30618;BME280;17384;51.214;9.202;2023-02-28T05:51:52;99952.03;;;-1.70;54.98
30618;BME280;17384;51.214;9.202;2023-02-28T05:54:18;99954.59;;;-1.68;54.88
30618;BME280;17384;51.214;9.202;2023-02-28T05:56:43;99970.75;;;-1.72;55.37
30618;BME280;17384;51.214;9.202;2023-02-28T05:59:11;99968.09;;;-1.72;55.83
30618;BME280;17384;51.214;9.202;2023-02-28T06:01:40;99965.75;;;-1.76;56.68
30618;BME280;17384;51.214;9.202;2023-02-28T06:04:08;99962.88;;;-1.73;56.99
30618;BME280;17384;51.214;9.202;2023-02-28T06:06:35;99964.38;;;-1.82;57.21
30618;BME280;17384;51.214;9.202;2023-02-28T06:09:04;99959.50;;;-1.88;57.44
30618;BME280;17384;51.214;9.202;2023-02-28T06:11:30;99971.13;;;-2.01;58.44
30618;BME280;17384;51.214;9.202;2023-02-28T06:13:57;99963.03;;;-2.00;57.87
30618;BME280;17384;51.214;9.202;2023-02-28T06:16:26;99977.72;;;-1.94;58.03
30618;BME280;17384;51.214;9.202;2023-02-28T06:18:52;99982.28;;;-1.96;58.06
30618;BME280;17384;51.214;9.202;2023-02-28T06:21:18;99976.44;;;-2.01;58.65
30618;BME280;17384;51.214;9.202;2023-02-28T06:23:44;99973.75;;;-1.89;58.29
30618;BME280;17384;51.214;9.202;2023-02-28T06:26:10;99989.41;;;-1.97;58.66
30618;BME280;17384;51.214;9.202;2023-02-28T06:28:36;99982.72;;;-2.02;59.06
30618;BME280;17384;51.214;9.202;2023-02-28T06:31:12;99994.09;;;-2.00;58.68
30618;BME280;17384;51.214;9.202;2023-02-28T06:33:39;99990.66;;;-1.90;58.86
30618;BME280;17384;51.214;9.202;2023-02-28T06:36:05;100000.66;;;-1.81;58.89
30618;BME280;17384;51.214;9.202;2023-02-28T06:38:31;99995.13;;;-1.78;59.16
30618;BME280;17384;51.214;9.202;2023-02-28T06:40:59;99996.41;;;-1.71;59.09
30618;BME280;17384;51.214;9.202;2023-02-28T06:43:27;100020.63;;;-1.62;59.87
30618;BME280;17384;51.214;9.202;2023-02-28T06:45:58;100018.94;;;-1.51;59.61
30618;BME280;17384;51.214;9.202;2023-02-28T06:48:26;100022.91;;;-1.32;60.07
30618;BME280;17384;51.214;9.202;2023-02-28T06:50:51;100026.00;;;-1.26;60.88
30618;BME280;17384;51.214;9.202;2023-02-28T06:53:17;100020.78;;;-1.27;62.45
30618;BME280;17384;51.214;9.202;2023-02-28T06:55:42;100011.94;;;-0.91;60.77
30618;BME280;17384;51.214;9.202;2023-02-28T06:58:09;100014.91;;;-0.48;60.61
30618;BME280;17384;51.214;9.202;2023-02-28T07:00:45;100019.88;;;0.03;59.26
30618;BME280;17384;51.214;9.202;2023-02-28T07:03:12;100022.56;;;0.58;57.36
30618;BME280;17384;51.214;9.202;2023-02-28T07:05:38;100014.78;;;0.89;54.97
30618;BME280;17384;51.214;9.202;2023-02-28T07:08:05;100020.47;;;1.07;55.40
30618;BME280;17384;51.214;9.202;2023-02-28T07:10:32;100016.03;;;1.17;54.87
30618;BME280;17384;51.214;9.202;2023-02-28T07:12:59;100024.09;;;1.38;54.10
30618;BME280;17384;51.214;9.202;2023-02-28T07:15:25;100013.56;;;1.36;53.78
30618;BME280;17384;51.214;9.202;2023-02-28T07:17:50;100020.03;;;0.57;55.77
30618;BME280;17384;51.214;9.202;2023-02-28T07:20:16;100021.00;;;0.33;56.16
30618;BME280;17384;51.214;9.202;2023-02-28T07:22:41;100025.56;;;-0.13;57.22
30618;BME280;17384;51.214;9.202;2023-02-28T07:25:07;100023.91;;;-0.27;57.54
30618;BME280;17384;51.214;9.202;2023-02-28T07:27:33;100008.25;;;-0.43;58.34
30618;BME280;17384;51.214;9.202;2023-02-28T07:29:59;100010.41;;;-0.59;58.56
30618;BME280;17384;51.214;9.202;2023-02-28T07:32:27;100013.41;;;-0.28;58.23
30618;BME280;17384;51.214;9.202;2023-02-28T07:34:53;100029.75;;;-0.22;58.21
30618;BME280;17384;51.214;9.202;2023-02-28T07:37:18;100015.69;;;-0.35;57.43
30618;BME280;17384;51.214;9.202;2023-02-28T07:39:44;100026.75;;;-0.17;57.24
30618;BME280;17384;51.214;9.202;2023-02-28T07:42:09;100007.88;;;-0.03;56.71
30618;BME280;17384;51.214;9.202;2023-02-28T07:44:38;100027.91;;;0.36;55.00
30618;BME280;17384;51.214;9.202;2023-02-28T07:47:07;100020.81;;;1.45;54.84
30618;BME280;17384;51.214;9.202;2023-02-28T07:49:34;100024.94;;;2.32;52.38
30618;BME280;17384;51.214;9.202;2023-02-28T07:51:59;100028.72;;;3.00;46.67
30618;BME280;17384;51.214;9.202;2023-02-28T07:54:25;100025.56;;;2.86;46.03
30618;BME280;17384;51.214;9.202;2023-02-28T07:56:50;100019.56;;;3.13;45.02
30618;BME280;17384;51.214;9.202;2023-02-28T07:59:16;100021.88;;;2.47;45.72
30618;BME280;17384;51.214;9.202;2023-02-28T08:01:41;100037.09;;;2.16;47.20
30618;BME280;17384;51.214;9.202;2023-02-28T08:04:09;100029.22;;;2.85;47.20
30618;BME280;17384;51.214;9.202;2023-02-28T08:06:34;100038.38;;;2.82;44.64
30618;BME280;17384;51.214;9.202;2023-02-28T08:09:00;100027.53;;;2.84;46.10
30618;BME280;17384;51.214;9.202;2023-02-28T08:11:25;100037.16;;;2.56;44.18
30618;BME280;17384;51.214;9.202;2023-02-28T08:13:51;100023.69;;;2.77;44.77
30618;BME280;17384;51.214;9.202;2023-02-28T08:16:17;100025.81;;;3.61;42.99
30618;BME280;17384;51.214;9.202;2023-02-28T08:18:50;100020.47;;;3.42;42.54
30618;BME280;17384;51.214;9.202;2023-02-28T08:21:16;100025.19;;;3.10;42.35
30618;BME280;17384;51.214;9.202;2023-02-28T08:23:41;100017.91;;;3.69;42.44
30618;BME280;17384;51.214;9.202;2023-02-28T08:26:07;100019.28;;;4.12;41.43
30618;BME280;17384;51.214;9.202;2023-02-28T08:28:32;100024.13;;;4.08;40.35
30618;BME280;17384;51.214;9.202;2023-02-28T08:30:58;100031.59;;;3.18;41.67
30618;BME280;17384;51.214;9.202;2023-02-28T08:33:25;100028.50;;;2.12;43.53
30618;BME280;17384;51.214;9.202;2023-02-28T08:35:55;100009.94;;;1.58;44.05
30618;BME280;17384;51.214;9.202;2023-02-28T08:38:21;100011.34;;;1.09;46.45
30618;BME280;17384;51.214;9.202;2023-02-28T08:40:46;100031.28;;;1.05;47.66
30618;BME280;17384;51.214;9.202;2023-02-28T08:43:12;100019.91;;;1.56;46.04
30618;BME280;17384;51.214;9.202;2023-02-28T08:45:37;100020.91;;;2.17;45.70
30618;BME280;17384;51.214;9.202;2023-02-28T08:48:03;100024.25;;;2.10;46.96
30618;BME280;17384;51.214;9.202;2023-02-28T08:50:29;100039.63;;;1.55;44.95
30618;BME280;17384;51.214;9.202;2023-02-28T08:52:55;100037.09;;;2.16;45.23
30618;BME280;17384;51.214;9.202;2023-02-28T08:55:20;100026.00;;;2.91;43.59
30618;BME280;17384;51.214;9.202;2023-02-28T08:57:46;100035.44;;;2.45;44.33
30618;BME280;17384;51.214;9.202;2023-02-28T09:00:12;100038.34;;;1.91;44.84
30618;BME280;17384;51.214;9.202;2023-02-28T09:02:39;100038.28;;;2.02;44.08
30618;BME280;17384;51.214;9.202;2023-02-28T09:05:06;100047.22;;;2.12;44.50
30618;BME280;17384;51.214;9.202;2023-02-28T09:07:31;100030.81;;;2.57;44.70
30618;BME280;17384;51.214;9.202;2023-02-28T09:09:57;100039.47;;;3.00;42.87
30618;BME280;17384;51.214;9.202;2023-02-28T09:12:27;100039.41;;;3.50;41.12
30618;BME280;17384;51.214;9.202;2023-02-28T09:14:53;100041.25;;;2.90;41.71
30618;BME280;17384;51.214;9.202;2023-02-28T09:17:19;100046.81;;;2.68;41.97
30618;BME280;17384;51.214;9.202;2023-02-28T09:19:47;100030.19;;;3.43;41.59
30618;BME280;17384;51.214;9.202;2023-02-28T09:22:13;100022.00;;;3.83;38.90
30618;BME280;17384;51.214;9.202;2023-02-28T09:24:38;100034.28;;;4.05;40.45
30618;BME280;17384;51.214;9.202;2023-02-28T09:27:04;100024.63;;;4.22;39.40
30618;BME280;17384;51.214;9.202;2023-02-28T09:29:31;100035.16;;;4.89;37.66
30618;BME280;17384;51.214;9.202;2023-02-28T09:31:57;100019.84;;;5.17;38.78
30618;BME280;17384;51.214;9.202;2023-02-28T09:34:26;100020.72;;;5.53;37.03
30618;BME280;17384;51.214;9.202;2023-02-28T09:36:52;100009.25;;;5.51;37.11
30618;BME280;17384;51.214;9.202;2023-02-28T09:39:23;100036.94;;;5.61;37.83
30618;BME280;17384;51.214;9.202;2023-02-28T09:41:52;100029.78;;;5.34;37.37
30618;BME280;17384;51.214;9.202;2023-02-28T09:44:39;100022.94;;;4.95;37.69
30618;BME280;17384;51.214;9.202;2023-02-28T09:47:42;100012.81;;;3.86;39.60
30618;BME280;17384;51.214;9.202;2023-02-28T09:50:41;100026.25;;;4.52;38.00
30618;BME280;17384;51.214;9.202;2023-02-28T09:53:22;100010.22;;;4.23;40.05
30618;BME280;17384;51.214;9.202;2023-02-28T09:55:55;100019.06;;;3.77;38.43
30618;BME280;17384;51.214;9.202;2023-02-28T09:58:30;100014.19;;;4.19;37.44
30618;BME280;17384;51.214;9.202;2023-02-28T10:01:09;100021.84;;;4.04;38.16
30618;BME280;17384;51.214;9.202;2023-02-28T10:03:43;100017.03;;;4.07;39.27
30618;BME280;17384;51.214;9.202;2023-02-28T10:06:18;100032.69;;;3.16;40.50
30618;BME280;17384;51.214;9.202;2023-02-28T10:09:01;100018.47;;;3.34;39.50
30618;BME280;17384;51.214;9.202;2023-02-28T10:11:27;100023.09;;;4.19;38.92
30618;BME280;17384;51.214;9.202;2023-02-28T10:14:04;100026.25;;;4.52;39.23
30618;BME280;17384;51.214;9.202;2023-02-28T10:19:04;100023.88;;;3.83;38.01
30618;BME280;17384;51.214;9.202;2023-02-28T10:21:35;100032.59;;;4.88;39.14
30618;BME280;17384;51.214;9.202;2023-02-28T10:24:09;100033.47;;;4.88;36.27
30618;BME280;17384;51.214;9.202;2023-02-28T10:26:43;100007.41;;;5.69;35.81
30618;BME280;17384;51.214;9.202;2023-02-28T10:29:10;100008.81;;;5.73;34.69
30618;BME280;17384;51.214;9.202;2023-02-28T10:31:36;100026.25;;;5.69;35.44
30618;BME280;17384;51.214;9.202;2023-02-28T10:34:03;100019.47;;;5.48;36.92
30618;BME280;17384;51.214;9.202;2023-02-28T10:36:29;100024.56;;;5.05;36.60
30618;BME280;17384;51.214;9.202;2023-02-28T10:38:54;100015.53;;;5.77;36.56
30618;BME280;17384;51.214;9.202;2023-02-28T10:41:31;100034.78;;;5.83;35.52
30618;BME280;17384;51.214;9.202;2023-02-28T10:44:20;100024.34;;;5.44;36.39
30618;BME280;17384;51.214;9.202;2023-02-28T10:46:48;100017.47;;;5.50;37.27
30618;BME280;17384;51.214;9.202;2023-02-28T10:49:20;100013.34;;;5.73;37.58
30618;BME280;17384;51.214;9.202;2023-02-28T10:51:50;100022.28;;;6.69;35.65
30618;BME280;17384;51.214;9.202;2023-02-28T10:54:37;100022.13;;;7.04;33.98
30618;BME280;17384;51.214;9.202;2023-02-28T10:57:16;100011.28;;;6.54;36.20
30618;BME280;17384;51.214;9.202;2023-02-28T10:59:43;100009.91;;;6.50;35.98
30618;BME280;17384;51.214;9.202;2023-02-28T11:02:35;100015.47;;;7.49;34.40
30618;BME280;17384;51.214;9.202;2023-02-28T11:05:02;100003.56;;;7.01;35.03
30618;BME280;17384;51.214;9.202;2023-02-28T11:07:52;100006.34;;;5.98;35.42
30618;BME280;17384;51.214;9.202;2023-02-28T11:10:20;100005.88;;;5.49;36.30
30618;BME280;17384;51.214;9.202;2023-02-28T11:12:48;100006.47;;;5.78;36.06
30618;BME280;17384;51.214;9.202;2023-02-28T11:18:53;99999.09;;;5.81;36.30
30618;BME280;17384;51.214;9.202;2023-02-28T11:20:49;99991.13;;;4.90;38.51
30618;BME280;17384;51.214;9.202;2023-02-28T11:23:16;99992.47;;;4.76;37.75
30618;BME280;17384;51.214;9.202;2023-02-28T11:25:50;99994.13;;;4.87;37.38
30618;BME280;17384;51.214;9.202;2023-02-28T11:28:34;99990.97;;;5.90;36.95
30618;BME280;17384;51.214;9.202;2023-02-28T11:33:41;99967.97;;;6.30;36.11
30618;BME280;17384;51.214;9.202;2023-02-28T11:36:16;99969.53;;;6.66;35.71
30618;BME280;17384;51.214;9.202;2023-02-28T11:38:43;99993.56;;;6.52;35.42
30618;BME280;17384;51.214;9.202;2023-02-28T11:46:47;99979.66;;;5.51;36.49
30618;BME280;17384;51.214;9.202;2023-02-28T11:49:40;99983.78;;;5.81;36.53
30618;BME280;17384;51.214;9.202;2023-02-28T11:52:22;99976.16;;;5.76;37.28
30618;BME280;17384;51.214;9.202;2023-02-28T12:05:57;99973.22;;;6.65;35.06
30618;BME280;17384;51.214;9.202;2023-02-28T12:08:41;99970.47;;;6.57;35.78
30618;BME280;17384;51.214;9.202;2023-02-28T12:19:43;99964.19;;;5.35;38.48
30618;BME280;17384;51.214;9.202;2023-02-28T12:24:51;99965.44;;;4.78;39.58
30618;BME280;17384;51.214;9.202;2023-02-28T12:27:22;99951.19;;;5.49;37.27
30618;BME280;17384;51.214;9.202;2023-02-28T12:29:57;99973.44;;;5.33;40.48
30618;BME280;17384;51.214;9.202;2023-02-28T12:37:37;99943.19;;;6.60;35.54
30618;BME280;17384;51.214;9.202;2023-02-28T12:40:11;99942.03;;;6.03;35.14
30618;BME280;17384;51.214;9.202;2023-02-28T12:42:45;99937.97;;;6.59;36.40
30618;BME280;17384;51.214;9.202;2023-02-28T12:45:18;99941.09;;;6.88;35.89
30618;BME280;17384;51.214;9.202;2023-02-28T12:47:48;99942.09;;;6.79;34.67
30618;BME280;17384;51.214;9.202;2023-02-28T12:50:16;99936.13;;;5.56;37.04
30618;BME280;17384;51.214;9.202;2023-02-28T12:55:35;99917.94;;;5.14;37.24
30618;BME280;17384;51.214;9.202;2023-02-28T12:58:29;99923.22;;;5.06;37.87
30618;BME280;17384;51.214;9.202;2023-02-28T13:09:18;99928.84;;;5.13;37.73
30618;BME280;17384;51.214;9.202;2023-02-28T13:11:46;99909.38;;;5.01;38.39
30618;BME280;17384;51.214;9.202;2023-02-28T13:14:28;99914.53;;;5.30;37.21
30618;BME280;17384;51.214;9.202;2023-02-28T13:19:36;99925.59;;;5.88;36.92
30618;BME280;17384;51.214;9.202;2023-02-28T13:22:03;99921.16;;;6.31;35.47
30618;BME280;17384;51.214;9.202;2023-02-28T13:24:50;99911.06;;;6.75;36.52
30618;BME280;17384;51.214;9.202;2023-02-28T13:27:33;99909.19;;;6.67;34.87
30618;BME280;17384;51.214;9.202;2023-02-28T13:29:59;99901.97;;;6.26;36.97
30618;BME280;17384;51.214;9.202;2023-02-28T13:39:56;99908.56;;;6.39;36.51
30618;BME280;17384;51.214;9.202;2023-02-28T14:01:05;99902.19;;;6.40;36.66
30618;BME280;17384;51.214;9.202;2023-02-28T14:06:27;99877.81;;;6.50;35.97
30618;BME280;17384;51.214;9.202;2023-02-28T14:09:27;99881.81;;;6.46;35.83
30618;BME280;17384;51.214;9.202;2023-02-28T14:11:54;99876.56;;;6.36;36.88
30618;BME280;17384;51.214;9.202;2023-02-28T14:17:06;99867.69;;;6.52;36.44
30618;BME280;17384;51.214;9.202;2023-02-28T14:19:35;99869.94;;;6.73;36.56
30618;BME280;17384;51.214;9.202;2023-02-28T14:27:26;99861.94;;;7.30;36.50
30618;BME280;17384;51.214;9.202;2023-02-28T14:41:34;99864.94;;;7.19;34.35
30618;BME280;17384;51.214;9.202;2023-02-28T14:44:14;99863.59;;;7.55;34.41
30618;BME280;17384;51.214;9.202;2023-02-28T14:46:41;99871.03;;;7.04;34.98
30618;BME280;17384;51.214;9.202;2023-02-28T14:49:36;99862.25;;;7.59;34.26
30618;BME280;17384;51.214;9.202;2023-02-28T14:54:31;99870.44;;;8.54;33.22
30618;BME280;17384;51.214;9.202;2023-02-28T14:56:57;99859.38;;;8.71;33.11
30618;BME280;17384;51.214;9.202;2023-02-28T14:59:29;99868.63;;;7.82;33.61
30618;BME280;17384;51.214;9.202;2023-02-28T15:02:17;99860.44;;;8.93;32.63
30618;BME280;17384;51.214;9.202;2023-02-28T15:04:52;99851.00;;;8.03;34.00
30618;BME280;17384;51.214;9.202;2023-02-28T15:07:17;99861.53;;;8.76;33.19
30618;BME280;17384;51.214;9.202;2023-02-28T15:09:43;99856.22;;;8.60;32.63
30618;BME280;17384;51.214;9.202;2023-02-28T15:12:13;99857.47;;;9.03;32.35
30618;BME280;17384;51.214;9.202;2023-02-28T15:14:42;99853.00;;;8.64;32.22
30618;BME280;17384;51.214;9.202;2023-02-28T15:17:19;99863.50;;;9.73;30.23
30618;BME280;17384;51.214;9.202;2023-02-28T15:19:48;99848.69;;;9.84;30.51
30618;BME280;17384;51.214;9.202;2023-02-28T15:22:19;99852.47;;;9.90;30.87
30618;BME280;17384;51.214;9.202;2023-02-28T15:24:51;99847.88;;;8.38;32.37
30618;BME280;17384;51.214;9.202;2023-02-28T15:27:27;99850.09;;;8.35;33.29